Погода Островекна 2 недели

Подляское воеводство, Польша

18 - 31 июля
  • 18июля
    Сегодня
    +14°
    +27°
    Небольшая облачность
    ВремяПогодаТемператураВлажностьДавлениеВетер, м/сВероятность осадков
    02:00Облачно с прояснениями+19°C63 %751 мм2.8 м/с4 %
    05:00Облачно с прояснениями+17°C81 %752 мм2.2 м/с34 %
    08:00Ясно и безоблачно+21°C77 %752 мм1.9 м/с7 %
    11:00Ясно и безоблачно+24°C53 %752 мм3.6 м/с11 %
    14:00Небольшая облачность+26°C43 %752 мм5.0 м/с7 %
    17:00Облачно с прояснениями+25°C42 %751 мм5.0 м/с2 %
    20:00Ясно и безоблачно+23°C55 %752 мм2.1 м/с2 %
    23:00Облачно с прояснениями+18°C65 %752 мм2.8 м/с2 %
  • 19июля
    Пятница
    +13°
    +26°
    Ясно и безоблачно
    ВремяПогодаТемператураВлажностьДавлениеВетер, м/сВероятность осадков
    02:00Ясно и безоблачно+16°C77 %753 мм2.6 м/с2 %
    05:00Небольшая облачность+14°C88 %753 мм2.6 м/с2 %
    08:00Ясно и безоблачно+18°C74 %753 мм2.4 м/с2 %
    11:00Ясно и безоблачно+22°C60 %752 мм3.2 м/с2 %
    14:00Ясно и безоблачно+25°C49 %751 мм3.6 м/с2 %
    17:00Ясно и безоблачно+25°C46 %750 мм3.8 м/с2 %
    20:00Ясно и безоблачно+22°C56 %750 мм2.4 м/с2 %
    23:00Ясно и безоблачно+17°C65 %750 мм3.1 м/с2 %
  • 20июля
    Суббота
    +14°
    +26°
    Ясно и безоблачно
    ВремяПогодаТемператураВлажностьДавлениеВетер, м/сВероятность осадков
    02:00Ясно и безоблачно+14°C75 %750 мм2.0 м/с2 %
    05:00Ясно и безоблачно+13°C88 %749 мм2.2 м/с2 %
    08:00Ясно и безоблачно+17°C74 %749 мм1.9 м/с2 %
    11:00Практически безоблачно+22°C54 %748 мм2.5 м/с2 %
    14:00Ясно и безоблачно+25°C42 %748 мм2.4 м/с2 %
    17:00Ясно и безоблачно+25°C41 %747 мм2.1 м/с2 %
    20:00Практически безоблачно+23°C63 %746 мм1.8 м/с2 %
    23:00Практически безоблачно+18°C65 %746 мм2.3 м/с2 %
  • 21июля
    Воскресенье
    +14°
    +28°
    Небольшая облачность
    ВремяПогодаТемператураВлажностьДавлениеВетер, м/сВероятность осадков
    02:00Ясно и безоблачно+16°C71 %746 мм2.2 м/с2 %
    05:00Ясно и безоблачно+15°C85 %745 мм1.7 м/с2 %
    08:00Ясно и безоблачно+20°C67 %745 мм1.0 м/с2 %
    11:00Практически безоблачно+25°C45 %745 мм1.2 м/с4 %
    14:00Небольшая облачность+27°C36 %745 мм2.6 м/с7 %
    17:00Практически безоблачно+27°C37 %744 мм2.1 м/с4 %
    20:00Практически безоблачно+25°C46 %744 мм1.0 м/с2 %
    23:00Практически безоблачно+18°C59 %744 мм2.0 м/с2 %
  • 22июля
    Понедельник
    +14°
    +29°
    Практически безоблачно
    ВремяПогодаТемператураВлажностьДавлениеВетер, м/сВероятность осадков
    02:00Ясно и безоблачно+16°C79 %744 мм1.6 м/с2 %
    05:00Ясно и безоблачно+15°C89 %744 мм1.3 м/с2 %
    08:00Ясно и безоблачно+21°C63 %745 мм1.1 м/с2 %
    11:00Практически безоблачно+26°C43 %745 мм0.8 м/с4 %
    14:00Практически безоблачно+29°C38 %745 мм1.4 м/с9 %
    17:00Практически безоблачно+26°C38 %744 мм1.7 м/с14 %
    20:00Ясно и безоблачно+23°C54 %744 мм1.8 м/с15 %
    23:00Ясно и безоблачно+18°C70 %745 мм1.9 м/с9 %
Мы используем cookies
Соглашаюсь